Time;durP1;ratioP1;P1;durP2;ratioP2;P2;SDS_P1;SDS_P2;PMS_P1;PMS_P2;Temp;Humidity;BMP_temperature;BMP_pressure;BME280_temperature;BME280_humidity;BME280_pressure;Samples;Min_cycle;Max_cycle;Signal;HPM_P1;HPM_P2
2022/11/02 00:01:38;;;;;;;;;;;;;;;;;;5070811;28;19996;-62
2022/11/02 00:04:04;;;;;;;;;;;;;;;;;;5057844;28;19960;-62
2022/11/02 00:06:29;;;;;;;;;;;;;;;;;;5069319;28;19916;-62
2022/11/02 00:08:55;;;;;;;;;;;;;;;;;;5067908;28;19913;-61
2022/11/02 00:11:21;;;;;;;;;;;;;;;;;;5071075;28;20392;-61
2022/11/02 00:13:47;;;;;;;;;;;;;;;;;;5056616;28;19991;-61
2022/11/02 00:16:13;;;;;;;;;;;;;;;;;;5061790;28;19934;-61
2022/11/02 00:18:39;;;;;;;;;;;;;;;;;;5054748;28;19909;-62
2022/11/02 00:21:05;;;;;;;;;;;;;;;;;;5065428;28;20020;-62
2022/11/02 00:23:31;;;;;;;;;;;;;;;;;;5066414;28;19920;-61
2022/11/02 00:25:57;;;;;;;;;;;;;;;;;;5060680;28;19917;-62
2022/11/02 00:28:22;;;;;;;;;;;;;;;;;;5061895;28;19916;-62
2022/11/02 00:30:48;;;;;;;;;;;;;;;;;;5068889;28;19991;-62
2022/11/02 00:33:14;;;;;;;;;;;;;;;;;;5060190;28;19968;-62
2022/11/02 00:35:40;;;;;;;;;;;;;;;;;;5067039;28;19999;-62
2022/11/02 00:38:06;;;;;;;;;;;;;;;;;;5064673;28;19914;-61
2022/11/02 00:40:32;;;;;;;;;;;;;;;;;;5068373;28;20091;-62
2022/11/02 00:42:58;;;;;;;;;;;;;;;;;;5061057;28;20456;-62
2022/11/02 00:45:24;;;;;;;;;;;;;;;;;;5058692;28;20051;-61
2022/11/02 00:47:50;;;;;;;;;;;;;;;;;;5062296;28;19913;-62
2022/11/02 00:50:16;;;;;;;;;;;;;;;;;;5064112;28;19912;-62
2022/11/02 00:52:42;;;;;;;;;;;;;;;;;;5072031;28;20058;-61
2022/11/02 00:55:09;;;;;;;;;;;;;;;;;;5064739;28;20592;-61
2022/11/02 00:57:35;;;;;;;;;;;;;;;;;;5070702;28;20253;-61
2022/11/02 01:00:00;;;;;;;;;;;;;;;;;;5059155;28;19997;-61
2022/11/02 01:02:26;;;;;;;;;;;;;;;;;;5061663;28;20284;-61
2022/11/02 01:04:52;;;;;;;;;;;;;;;;;;5057102;28;20026;-61
2022/11/02 01:07:18;;;;;;;;;;;;;;;;;;5062289;28;19908;-61
2022/11/02 01:09:44;;;;;;;;;;;;;;;;;;5053490;28;19908;-61
2022/11/02 01:12:10;;;;;;;;;;;;;;;;;;5064726;28;19965;-59
2022/11/02 01:14:36;;;;;;;;;;;;;;;;;;5055672;28;19932;-62
2022/11/02 01:17:03;;;;;;;;;;;;;;;;;;5061492;28;19968;-61
2022/11/02 01:19:29;;;;;;;;;;;;;;;;;;5068985;28;19913;-62
2022/11/02 01:21:55;;;;;;;;;;;;;;;;;;5071401;28;19951;-62
2022/11/02 01:24:21;;;;;;;;;;;;;;;;;;5069091;28;20708;-62
2022/11/02 01:26:47;;;;;;;;;;;;;;;;;;5067586;28;19999;-62
2022/11/02 01:29:13;;;;;;;;;;;;;;;;;;5059823;28;19916;-62
2022/11/02 01:31:38;;;;;;;;;;;;;;;;;;5067928;28;20410;-62
2022/11/02 01:34:04;;;;;;;;;;;;;;;;;;5065863;28;19952;-60
2022/11/02 01:36:30;;;;;;;;;;;;;;;;;;5058060;28;20017;-62
2022/11/02 01:38:56;;;;;;;;;;;;;;;;;;5053925;28;20388;-62
2022/11/02 01:41:22;;;;;;;;;;;;;;;;;;5063798;28;19919;-62
2022/11/02 01:43:48;;;;;;;;;;;;;;;;;;5060251;28;19913;-61
2022/11/02 01:46:14;;;;;;;;;;;;;;;;;;5060966;28;19979;-62
2022/11/02 01:48:40;;;;;;;;;;;;;;;;;;5060975;28;19908;-62
2022/11/02 01:51:06;;;;;;;;;;;;;;;;;;5060965;28;19912;-61
2022/11/02 01:53:31;;;;;;;;;;;;;;;;;;5063696;28;20450;-61
2022/11/02 01:55:57;;;;;;;;;;;;;;;;;;5065518;28;19924;-62
2022/11/02 01:58:23;;;;;;;;;;;;;;;;;;5053712;28;20283;-61
2022/11/02 02:00:49;;;;;;;;;;;;;;;;;;5062569;28;19954;-59
2022/11/02 02:03:16;;;;;;;;;;;;;;;;;;5214417;22;19923;-83
2022/11/02 02:05:42;;;;;;;;;;;;;;;;;;5053373;28;19916;-84
2022/11/02 02:08:08;;;;;;;;;;;;;;;;;;5054382;28;19923;-84
2022/11/02 02:13:04;;;;;;;;;;;;;;;;;;5051752;28;19929;-58
2022/11/02 02:15:29;;;;;;;;;;;;;;;;;;5050818;28;20010;-59
2022/11/02 02:17:55;;;;;;;;;;;;;;;;;;5047867;28;19966;-59
2022/11/02 02:20:21;;;;;;;;;;;;;;;;;;5050455;28;20539;-59
2022/11/02 02:22:47;;;;;;;;;;;;;;;;;;5051956;28;19913;-59
2022/11/02 02:25:13;;;;;;;;;;;;;;;;;;5050444;28;20044;-59
2022/11/02 02:27:39;;;;;;;;;;;;;;;;;;5052180;28;19913;-58
2022/11/02 02:30:05;;;;;;;;;;;;;;;;;;5052239;28;19952;-59
2022/11/02 02:32:31;;;;;;;;;;;;;;;;;;5052876;28;20003;-59
2022/11/02 02:34:57;;;;;;;;;;;;;;;;;;5052611;28;19940;-59
2022/11/02 02:37:23;;;;;;;;;;;;;;;;;;5052225;28;20007;-60
2022/11/02 02:39:48;;;;;;;;;;;;;;;;;;5051713;28;20260;-58
2022/11/02 02:42:14;;;;;;;;;;;;;;;;;;5051401;28;19913;-58
2022/11/02 02:44:40;;;;;;;;;;;;;;;;;;5051556;28;19960;-59
2022/11/02 02:47:06;;;;;;;;;;;;;;;;;;5052379;28;20387;-59
2022/11/02 02:49:32;;;;;;;;;;;;;;;;;;5051446;28;19919;-59
2022/11/02 02:51:58;;;;;;;;;;;;;;;;;;5051692;28;19947;-58
2022/11/02 02:54:24;;;;;;;;;;;;;;;;;;5051695;28;19987;-58
2022/11/02 02:56:50;;;;;;;;;;;;;;;;;;5050646;28;20436;-59
2022/11/02 02:59:16;;;;;;;;;;;;;;;;;;5049127;28;19913;-58
2022/11/02 03:01:41;;;;;;;;;;;;;;;;;;5051445;28;19913;-58
2022/11/02 03:04:07;;;;;;;;;;;;;;;;;;5051165;28;20657;-58
2022/11/02 03:06:33;;;;;;;;;;;;;;;;;;5053140;28;19920;-58
2022/11/02 03:08:59;;;;;;;;;;;;;;;;;;5052267;28;19931;-58
2022/11/02 03:11:25;;;;;;;;;;;;;;;;;;5070869;28;19928;-58
2022/11/02 03:13:51;;;;;;;;;;;;;;;;;;5063860;28;20446;-58
2022/11/02 03:16:17;;;;;;;;;;;;;;;;;;5051551;28;20015;-59
2022/11/02 03:18:43;;;;;;;;;;;;;;;;;;5059990;28;20008;-59
2022/11/02 03:21:09;;;;;;;;;;;;;;;;;;5047908;28;19974;-59
2022/11/02 03:23:35;;;;;;;;;;;;;;;;;;5047142;28;19913;-59
2022/11/02 03:26:00;;;;;;;;;;;;;;;;;;5050642;28;19917;-59
2022/11/02 03:28:26;;;;;;;;;;;;;;;;;;5051562;28;19952;-59
2022/11/02 03:30:52;;;;;;;;;;;;;;;;;;5048171;28;19921;-58
2022/11/02 03:33:18;;;;;;;;;;;;;;;;;;5044722;28;19913;-59
2022/11/02 03:35:44;;;;;;;;;;;;;;;;;;5050086;28;19940;-59
2022/11/02 03:38:10;;;;;;;;;;;;;;;;;;5052031;28;19919;-58
2022/11/02 03:40:36;;;;;;;;;;;;;;;;;;5050551;28;19935;-59
2022/11/02 03:43:02;;;;;;;;;;;;;;;;;;5050935;28;19913;-58
2022/11/02 03:45:28;;;;;;;;;;;;;;;;;;5051550;28;19920;-58
2022/11/02 03:47:54;;;;;;;;;;;;;;;;;;5051017;28;19913;-60
2022/11/02 03:50:19;;;;;;;;;;;;;;;;;;5048100;28;19952;-58
2022/11/02 03:52:45;;;;;;;;;;;;;;;;;;5050297;28;20009;-59
2022/11/02 03:55:11;;;;;;;;;;;;;;;;;;5051427;28;19913;-58
2022/11/02 03:57:37;;;;;;;;;;;;;;;;;;5051558;28;19916;-58
2022/11/02 04:00:03;;;;;;;;;;;;;;;;;;5049584;28;19956;-59
2022/11/02 04:02:29;;;;;;;;;;;;;;;;;;5048118;28;19923;-57
2022/11/02 04:04:55;;;;;;;;;;;;;;;;;;5049364;28;19920;-58
2022/11/02 04:07:21;;;;;;;;;;;;;;;;;;5050410;28;19956;-59
2022/11/02 04:09:47;;;;;;;;;;;;;;;;;;5050484;28;19966;-58
2022/11/02 04:14:57;;;;;;;;;;;;;;;;;;5051292;28;20398;-59
2022/11/02 04:20:08;;;;;;;;;;;;;;;;;;5049119;28;19978;-59
2022/11/02 04:25:18;;;;;;;;;;;;;;;;;;5049531;28;19924;-59
2022/11/02 04:27:45;;;;;;;;;;;;;;;;;;5050750;28;19917;-58
2022/11/02 04:30:11;;;;;;;;;;;;;;;;;;5050558;28;19920;-59
2022/11/02 04:35:21;;;;;;;;;;;;;;;;;;5041735;28;19967;-57
2022/11/02 04:40:31;;;;;;;;;;;;;;;;;;5054923;28;19949;-57
2022/11/02 04:42:57;;;;;;;;;;;;;;;;;;5053926;28;19916;-58
2022/11/02 04:45:23;;;;;;;;;;;;;;;;;;5053913;28;20418;-59
2022/11/02 04:47:49;;;;;;;;;;;;;;;;;;5054341;28;19917;-58
2022/11/02 04:50:15;;;;;;;;;;;;;;;;;;5054563;28;20338;-59
2022/11/02 04:52:41;;;;;;;;;;;;;;;;;;5054225;28;19978;-58
2022/11/02 04:55:07;;;;;;;;;;;;;;;;;;5053330;28;19940;-59
2022/11/02 04:57:33;;;;;;;;;;;;;;;;;;5054176;28;20007;-59
2022/11/02 05:00:00;;;;;;;;;;;;;;;;;;5053140;28;19919;-59
2022/11/02 05:02:25;;;;;;;;;;;;;;;;;;5054809;28;20415;-58
2022/11/02 05:04:51;;;;;;;;;;;;;;;;;;5054323;28;19959;-58
2022/11/02 05:07:17;;;;;;;;;;;;;;;;;;5053118;28;19921;-58
2022/11/02 05:09:43;;;;;;;;;;;;;;;;;;5052473;28;19921;-57
2022/11/02 05:12:09;;;;;;;;;;;;;;;;;;5054447;28;19979;-58
2022/11/02 05:14:35;;;;;;;;;;;;;;;;;;5053507;28;19912;-58
2022/11/02 05:17:01;;;;;;;;;;;;;;;;;;5054044;28;19913;-59
2022/11/02 05:19:27;;;;;;;;;;;;;;;;;;5054349;28;20288;-58
2022/11/02 05:21:53;;;;;;;;;;;;;;;;;;5052543;28;19952;-58
2022/11/02 05:24:19;;;;;;;;;;;;;;;;;;5053576;28;20019;-59
2022/11/02 05:26:44;;;;;;;;;;;;;;;;;;5052343;28;19973;-58
2022/11/02 05:29:10;;;;;;;;;;;;;;;;;;5053435;28;19913;-58
2022/11/02 05:31:36;;;;;;;;;;;;;;;;;;5053822;28;19971;-58
2022/11/02 05:34:02;;;;;;;;;;;;;;;;;;5051263;28;19917;-58
2022/11/02 05:36:28;;;;;;;;;;;;;;;;;;5052938;28;19920;-58
2022/11/02 05:38:54;;;;;;;;;;;;;;;;;;5053388;28;20414;-58
2022/11/02 05:41:20;;;;;;;;;;;;;;;;;;5052677;28;19996;-59
2022/11/02 05:43:46;;;;;;;;;;;;;;;;;;5052596;28;20304;-58
2022/11/02 05:46:13;;;;;;;;;;;;;;;;;;5052079;28;20023;-59
2022/11/02 05:48:39;;;;;;;;;;;;;;;;;;5053367;28;19920;-59
2022/11/02 05:51:05;;;;;;;;;;;;;;;;;;5052543;28;19916;-58
2022/11/02 05:53:32;;;;;;;;;;;;;;;;;;5053310;28;19913;-57
2022/11/02 05:55:58;;;;;;;;;;;;;;;;;;5053115;28;20359;-57
2022/11/02 05:58:24;;;;;;;;;;;;;;;;;;5053064;28;20033;-57
2022/11/02 06:00:50;;;;;;;;;;;;;;;;;;5051610;28;20014;-58
2022/11/02 06:03:16;;;;;;;;;;;;;;;;;;5046947;28;19919;-57
2022/11/02 06:05:42;;;;;;;;;;;;;;;;;;5053353;28;20414;-58
2022/11/02 06:08:08;;;;;;;;;;;;;;;;;;5052364;28;19956;-58
2022/11/02 06:10:34;;;;;;;;;;;;;;;;;;5052533;28;20000;-58
2022/11/02 06:13:00;;;;;;;;;;;;;;;;;;5052691;28;19927;-58
2022/11/02 06:15:26;;;;;;;;;;;;;;;;;;5051769;28;19919;-58
2022/11/02 06:17:52;;;;;;;;;;;;;;;;;;5052302;28;19940;-58
2022/11/02 06:20:18;;;;;;;;;;;;;;;;;;5052752;28;19920;-58
2022/11/02 06:22:44;;;;;;;;;;;;;;;;;;5052036;28;19982;-59
2022/11/02 06:25:10;;;;;;;;;;;;;;;;;;5051049;28;19916;-56
2022/11/02 06:27:36;;;;;;;;;;;;;;;;;;5039872;28;19954;-58
2022/11/02 06:30:02;;;;;;;;;;;;;;;;;;5048557;28;19913;-58
2022/11/02 06:32:27;;;;;;;;;;;;;;;;;;5051263;28;19920;-58
2022/11/02 06:34:53;;;;;;;;;;;;;;;;;;5045529;28;19960;-58
2022/11/02 06:37:19;;;;;;;;;;;;;;;;;;5059189;28;20394;-58
2022/11/02 06:39:45;;;;;;;;;;;;;;;;;;5048866;28;20015;-58
2022/11/02 06:42:11;;;;;;;;;;;;;;;;;;5051733;28;19908;-58
2022/11/02 06:44:37;;;;;;;;;;;;;;;;;;5050836;28;20028;-58
2022/11/02 06:47:03;;;;;;;;;;;;;;;;;;5048929;28;19916;-57
2022/11/02 06:49:29;;;;;;;;;;;;;;;;;;5052627;28;19908;-59
2022/11/02 06:51:55;;;;;;;;;;;;;;;;;;5049504;28;19952;-58
2022/11/02 06:54:21;;;;;;;;;;;;;;;;;;5051266;28;19948;-58
2022/11/02 06:56:46;;;;;;;;;;;;;;;;;;5060846;28;20363;-58
2022/11/02 06:59:12;;;;;;;;;;;;;;;;;;5066338;28;19909;-59
2022/11/02 07:01:38;;;;;;;;;;;;;;;;;;5058866;28;19943;-58
2022/11/02 07:04:04;;;;;;;;;;;;;;;;;;5052280;28;20361;-59
2022/11/02 07:06:30;;;;;;;;;;;;;;;;;;5051538;28;19924;-58
2022/11/02 07:08:56;;;;;;;;;;;;;;;;;;5052323;28;20319;-57
2022/11/02 07:11:22;;;;;;;;;;;;;;;;;;5050789;28;20029;-58
2022/11/02 07:13:48;;;;;;;;;;;;;;;;;;5048934;28;20063;-58
2022/11/02 07:16:14;;;;;;;;;;;;;;;;;;5050615;28;19948;-58
2022/11/02 07:18:40;;;;;;;;;;;;;;;;;;5045536;28;19913;-58
2022/11/02 07:21:05;;;;;;;;;;;;;;;;;;5043452;28;19923;-58
2022/11/02 07:23:31;;;;;;;;;;;;;;;;;;5040077;28;19913;-58
2022/11/02 07:25:57;;;;;;;;;;;;;;;;;;5046443;28;20158;-58
2022/11/02 07:28:23;;;;;;;;;;;;;;;;;;5045268;28;19940;-58
2022/11/02 07:30:49;;;;;;;;;;;;;;;;;;5048937;28;20386;-58
2022/11/02 07:33:15;;;;;;;;;;;;;;;;;;5048302;28;19913;-58
2022/11/02 07:35:41;;;;;;;;;;;;;;;;;;5047565;28;19913;-58
2022/11/02 07:38:07;;;;;;;;;;;;;;;;;;5047909;28;20496;-58
2022/11/02 07:40:33;;;;;;;;;;;;;;;;;;5050148;28;19952;-58
2022/11/02 07:42:59;;;;;;;;;;;;;;;;;;5050489;28;19960;-58
2022/11/02 07:45:25;;;;;;;;;;;;;;;;;;5046122;28;19959;-58
2022/11/02 07:47:50;;;;;;;;;;;;;;;;;;5049833;28;20000;-58
2022/11/02 07:50:16;;;;;;;;;;;;;;;;;;5049960;28;20002;-58
2022/11/02 07:52:42;;;;;;;;;;;;;;;;;;5041627;28;19932;-58
2022/11/02 07:55:08;;;;;;;;;;;;;;;;;;5045248;28;19921;-57
2022/11/02 07:57:34;;;;;;;;;;;;;;;;;;5049589;28;20343;-58
2022/11/02 08:00:00;;;;;;;;;;;;;;;;;;5051141;28;20003;-58
2022/11/02 08:02:26;;;;;;;;;;;;;;;;;;5048344;28;19913;-58
2022/11/02 08:04:52;;;;;;;;;;;;;;;;;;5047380;28;19923;-58
2022/11/02 08:07:18;;;;;;;;;;;;;;;;;;5050353;28;19956;-58
2022/11/02 08:09:44;;;;;;;;;;;;;;;;;;5049842;28;20585;-58
2022/11/02 08:12:09;;;;;;;;;;;;;;;;;;5052451;28;19942;-58
2022/11/02 08:14:35;;;;;;;;;;;;;;;;;;5054312;28;19959;-58
2022/11/02 08:17:01;;;;;;;;;;;;;;;;;;5052469;28;19916;-58
2022/11/02 08:19:27;;;;;;;;;;;;;;;;;;5054730;28;19912;-58
2022/11/02 08:21:55;;;;;;;;;;;;;;;;;;5043674;28;20033;-58
2022/11/02 08:24:20;;;;;;;;;;;;;;;;;;5050820;28;19917;-58
2022/11/02 08:26:46;;;;;;;;;;;;;;;;;;5049025;28;20388;-58
2022/11/02 08:29:12;;;;;;;;;;;;;;;;;;5049931;28;19919;-58
2022/11/02 08:31:38;;;;;;;;;;;;;;;;;;5053799;28;19909;-58
2022/11/02 08:34:04;;;;;;;;;;;;;;;;;;5049601;28;19916;-58
2022/11/02 08:36:30;;;;;;;;;;;;;;;;;;5054459;28;20010;-58
2022/11/02 08:38:56;;;;;;;;;;;;;;;;;;5054436;28;19948;-58
2022/11/02 08:41:22;;;;;;;;;;;;;;;;;;5052143;28;19934;-58
2022/11/02 08:43:48;;;;;;;;;;;;;;;;;;5051297;28;19931;-58
2022/11/02 08:46:13;;;;;;;;;;;;;;;;;;5052430;28;19962;-58
2022/11/02 08:48:39;;;;;;;;;;;;;;;;;;5053256;28;19919;-58
2022/11/02 08:51:07;;;;;;;;;;;;;;;;;;5054067;28;19913;-58
2022/11/02 08:53:33;;;;;;;;;;;;;;;;;;5053803;28;19979;-58
2022/11/02 08:55:59;;;;;;;;;;;;;;;;;;5039405;28;20468;-58
2022/11/02 08:58:25;;;;;;;;;;;;;;;;;;5047884;28;19921;-58
2022/11/02 09:00:51;;;;;;;;;;;;;;;;;;5052145;28;19990;-58
2022/11/02 09:03:17;;;;;;;;;;;;;;;;;;5033184;28;20373;-58
2022/11/02 09:05:43;;;;;;;;;;;;;;;;;;5053439;28;19935;-58
2022/11/02 09:08:09;;;;;;;;;;;;;;;;;;5049085;28;19912;-58
2022/11/02 09:10:35;;;;;;;;;;;;;;;;;;5049868;28;20021;-58
2022/11/02 09:13:01;;;;;;;;;;;;;;;;;;5047394;28;19921;-58
2022/11/02 09:15:27;;;;;;;;;;;;;;;;;;5051497;28;20004;-58
2022/11/02 09:17:53;;;;;;;;;;;;;;;;;;5052195;28;19967;-58
2022/11/02 09:20:19;;;;;;;;;;;;;;;;;;5051587;28;20378;-58
2022/11/02 09:22:45;;;;;;;;;;;;;;;;;;5051849;28;20007;-58
2022/11/02 09:25:11;;;;;;;;;;;;;;;;;;5051885;28;19921;-58
2022/11/02 09:27:37;;;;;;;;;;;;;;;;;;5052477;28;19927;-58
2022/11/02 09:30:03;;;;;;;;;;;;;;;;;;5051126;28;19948;-58
2022/11/02 09:32:32;;;;;;;;;;;;;;;;;;5053041;28;19958;-59
2022/11/02 09:34:58;;;;;;;;;;;;;;;;;;5050529;28;19920;-58
2022/11/02 09:37:24;;;;;;;;;;;;;;;;;;5055670;28;19967;-58
2022/11/02 09:39:49;;;;;;;;;;;;;;;;;;5049056;28;19917;-58
2022/11/02 09:42:15;;;;;;;;;;;;;;;;;;5044028;28;19913;-59
2022/11/02 09:44:41;;;;;;;;;;;;;;;;;;5049348;28;20517;-59
2022/11/02 09:47:08;;;;;;;;;;;;;;;;;;5048885;28;19916;-58
2022/11/02 09:49:34;;;;;;;;;;;;;;;;;;5048783;28;19924;-58
2022/11/02 09:52:00;;;;;;;;;;;;;;;;;;5047125;28;19964;-59
2022/11/02 09:54:26;;;;;;;;;;;;;;;;;;5049570;28;20407;-58
2022/11/02 09:56:52;;;;;;;;;;;;;;;;;;5052715;28;19927;-58
2022/11/02 09:59:17;;;;;;;;;;;;;;;;;;5046722;28;19998;-58
2022/11/02 10:01:43;;;;;;;;;;;;;;;;;;5046552;28;20030;-59
2022/11/02 10:04:09;;;;;;;;;;;;;;;;;;5051602;28;19944;-59
2022/11/02 10:06:35;;;;;;;;;;;;;;;;;;5053019;28;19982;-58
2022/11/02 10:09:01;;;;;;;;;;;;;;;;;;5052311;28;19916;-58
2022/11/02 10:11:27;;;;;;;;;;;;;;;;;;5052616;28;19924;-59
2022/11/02 10:13:53;;;;;;;;;;;;;;;;;;5052672;28;20032;-58
2022/11/02 10:16:19;;;;;;;;;;;;;;;;;;5052046;28;19913;-59
2022/11/02 10:18:49;;;;;;;;;;;;;;;;;;5052870;28;19955;-59
2022/11/02 10:21:15;;;;;;;;;;;;;;;;;;5052516;28;20339;-59
2022/11/02 10:23:41;;;;;;;;;;;;;;;;;;5052620;28;19995;-59
2022/11/02 10:26:06;;;;;;;;;;;;;;;;;;5051805;28;19973;-58
2022/11/02 10:28:32;;;;;;;;;;;;;;;;;;5051292;28;20387;-59
2022/11/02 10:30:58;;;;;;;;;;;;;;;;;;5048657;28;20390;-59
2022/11/02 10:33:25;;;;;;;;;;;;;;;;;;5052141;28;20328;-59
2022/11/02 10:35:51;;;;;;;;;;;;;;;;;;5050209;28;20260;-59
2022/11/02 10:38:17;;;;;;;;;;;;;;;;;;5053719;28;19959;-59
2022/11/02 10:40:43;;;;;;;;;;;;;;;;;;5057034;28;19952;-59
2022/11/02 10:43:09;;;;;;;;;;;;;;;;;;5051234;28;19912;-57
2022/11/02 10:45:36;;;;;;;;;;;;;;;;;;5050814;28;20499;-59
2022/11/02 10:48:02;;;;;;;;;;;;;;;;;;5052347;28;20287;-57
2022/11/02 10:50:28;;;;;;;;;;;;;;;;;;5048621;28;19951;-59
2022/11/02 10:52:54;;;;;;;;;;;;;;;;;;5049128;28;19916;-59
2022/11/02 10:55:20;;;;;;;;;;;;;;;;;;5047973;28;19952;-58
2022/11/02 10:57:46;;;;;;;;;;;;;;;;;;5048549;28;20387;-59
2022/11/02 11:00:11;;;;;;;;;;;;;;;;;;5048858;28;19951;-58
2022/11/02 11:02:37;;;;;;;;;;;;;;;;;;5048244;28;20299;-59
2022/11/02 11:05:03;;;;;;;;;;;;;;;;;;5050385;28;19920;-59
2022/11/02 11:07:29;;;;;;;;;;;;;;;;;;5050641;28;19964;-59
2022/11/02 11:09:55;;;;;;;;;;;;;;;;;;5051525;28;19919;-58
2022/11/02 11:12:21;;;;;;;;;;;;;;;;;;5049724;28;19924;-59
2022/11/02 11:14:47;;;;;;;;;;;;;;;;;;5047347;28;20508;-59
2022/11/02 11:17:13;;;;;;;;;;;;;;;;;;5043598;28;19944;-59
2022/11/02 11:19:39;;;;;;;;;;;;;;;;;;5046497;28;19919;-59
2022/11/02 11:22:05;;;;;;;;;;;;;;;;;;5049027;28;19952;-59
2022/11/02 11:24:30;;;;;;;;;;;;;;;;;;5031749;28;20003;-59
2022/11/02 11:26:56;;;;;;;;;;;;;;;;;;5032416;28;19915;-59
2022/11/02 11:29:22;;;;;;;;;;;;;;;;;;5049276;28;19925;-59
2022/11/02 11:31:48;;;;;;;;;;;;;;;;;;5047829;28;19959;-58
2022/11/02 11:34:14;;;;;;;;;;;;;;;;;;5049839;28;20003;-59
2022/11/02 11:36:43;;;;;;;;;;;;;;;;;;5047857;28;20275;-59
2022/11/02 11:39:09;;;;;;;;;;;;;;;;;;5048580;28;19920;-59
2022/11/02 11:41:35;;;;;;;;;;;;;;;;;;5047789;28;19923;-59
2022/11/02 11:44:01;;;;;;;;;;;;;;;;;;5051427;28;19947;-58
2022/11/02 11:46:27;;;;;;;;;;;;;;;;;;5054263;28;19921;-58
2022/11/02 11:48:53;;;;;;;;;;;;;;;;;;5055255;28;19909;-57
2022/11/02 11:51:18;;;;;;;;;;;;;;;;;;5054931;28;20480;-58
2022/11/02 11:53:44;;;;;;;;;;;;;;;;;;5055497;28;19960;-57
2022/11/02 11:56:10;;;;;;;;;;;;;;;;;;5053084;28;20431;-59
2022/11/02 11:58:36;;;;;;;;;;;;;;;;;;5054138;28;19915;-59
2022/11/02 12:01:02;;;;;;;;;;;;;;;;;;5053992;28;19916;-60
2022/11/02 12:03:28;;;;;;;;;;;;;;;;;;5054303;28;19956;-59
2022/11/02 12:05:54;;;;;;;;;;;;;;;;;;5055451;28;19952;-59
2022/11/02 12:08:20;;;;;;;;;;;;;;;;;;5055154;28;19948;-59
2022/11/02 12:10:46;;;;;;;;;;;;;;;;;;5053842;28;20352;-59
2022/11/02 12:13:12;;;;;;;;;;;;;;;;;;5054726;28;20002;-59
2022/11/02 12:15:38;;;;;;;;;;;;;;;;;;5054124;28;19917;-60
2022/11/02 12:18:04;;;;;;;;;;;;;;;;;;5053520;28;19916;-59
2022/11/02 12:20:30;;;;;;;;;;;;;;;;;;5053133;28;19951;-59
2022/11/02 12:22:56;;;;;;;;;;;;;;;;;;5048602;28;19972;-60
2022/11/02 12:25:21;;;;;;;;;;;;;;;;;;5053839;28;19916;-59
2022/11/02 12:27:50;;;;;;;;;;;;;;;;;;5047881;28;19924;-60
2022/11/02 12:30:16;;;;;;;;;;;;;;;;;;5050919;28;20364;-59
2022/11/02 12:32:42;;;;;;;;;;;;;;;;;;5046918;28;19917;-59
2022/11/02 12:35:08;;;;;;;;;;;;;;;;;;5054273;28;19975;-59
2022/11/02 12:37:34;;;;;;;;;;;;;;;;;;5051103;28;19979;-59
2022/11/02 12:40:00;;;;;;;;;;;;;;;;;;5049383;28;19956;-58
2022/11/02 12:42:26;;;;;;;;;;;;;;;;;;5050385;28;19919;-58
2022/11/02 12:44:52;;;;;;;;;;;;;;;;;;5053122;28;21705;-59
2022/11/02 12:47:18;;;;;;;;;;;;;;;;;;5046641;28;20001;-58
2022/11/02 12:49:43;;;;;;;;;;;;;;;;;;5052819;28;20382;-58
2022/11/02 12:52:09;;;;;;;;;;;;;;;;;;5052190;28;19913;-59
2022/11/02 12:54:35;;;;;;;;;;;;;;;;;;5052124;28;19919;-59
2022/11/02 12:57:01;;;;;;;;;;;;;;;;;;5050644;28;19913;-59
2022/11/02 12:59:27;;;;;;;;;;;;;;;;;;5054043;28;19913;-59
2022/11/02 13:01:53;;;;;;;;;;;;;;;;;;5049146;28;19987;-59
2022/11/02 13:04:19;;;;;;;;;;;;;;;;;;5050892;28;20318;-59
2022/11/02 13:06:45;;;;;;;;;;;;;;;;;;5050259;28;19921;-60
2022/11/02 13:09:11;;;;;;;;;;;;;;;;;;5053253;28;19949;-59
2022/11/02 13:11:37;;;;;;;;;;;;;;;;;;5050064;28;20011;-58
2022/11/02 13:14:03;;;;;;;;;;;;;;;;;;5050700;28;19923;-60
2022/11/02 13:16:28;;;;;;;;;;;;;;;;;;5047756;28;20154;-60
2022/11/02 13:18:54;;;;;;;;;;;;;;;;;;5052483;28;19959;-59
2022/11/02 13:21:20;;;;;;;;;;;;;;;;;;5039024;28;20462;-60
2022/11/02 13:23:46;;;;;;;;;;;;;;;;;;5052810;28;19979;-59
2022/11/02 13:26:12;;;;;;;;;;;;;;;;;;5053079;28;19956;-59
2022/11/02 13:28:39;;;;;;;;;;;;;;;;;;5052808;28;20477;-60
2022/11/02 13:31:05;;;;;;;;;;;;;;;;;;5046913;28;19920;-60
2022/11/02 13:33:33;;;;;;;;;;;;;;;;;;5045937;28;19912;-60
2022/11/02 13:35:59;;;;;;;;;;;;;;;;;;5048121;28;19909;-59
2022/11/02 13:38:25;;;;;;;;;;;;;;;;;;5049491;28;19940;-63
2022/11/02 13:40:51;;;;;;;;;;;;;;;;;;5051115;28;19913;-57
2022/11/02 13:43:17;;;;;;;;;;;;;;;;;;5051778;28;19913;-60
2022/11/02 13:45:43;;;;;;;;;;;;;;;;;;5052070;28;19957;-59
2022/11/02 13:48:09;;;;;;;;;;;;;;;;;;5052484;28;19919;-59
2022/11/02 13:50:35;;;;;;;;;;;;;;;;;;5052581;28;19917;-59
2022/11/02 13:53:01;;;;;;;;;;;;;;;;;;5052778;28;19912;-60
2022/11/02 13:55:27;;;;;;;;;;;;;;;;;;5051882;28;19909;-59
2022/11/02 13:57:53;;;;;;;;;;;;;;;;;;5049758;28;22446;-60
2022/11/02 14:00:19;;;;;;;;;;;;;;;;;;5049301;28;20011;-60
2022/11/02 14:02:45;;;;;;;;;;;;;;;;;;5052573;28;19921;-60
2022/11/02 14:05:11;;;;;;;;;;;;;;;;;;5052766;28;19998;-59
2022/11/02 14:07:37;;;;;;;;;;;;;;;;;;5051308;28;19940;-60
2022/11/02 14:10:03;;;;;;;;;;;;;;;;;;5051926;28;20290;-59
2022/11/02 14:12:28;;;;;;;;;;;;;;;;;;5051215;28;19925;-59
2022/11/02 14:14:54;;;;;;;;;;;;;;;;;;5052239;28;19924;-60
2022/11/02 14:17:20;;;;;;;;;;;;;;;;;;5050772;28;20778;-59
2022/11/02 14:19:46;;;;;;;;;;;;;;;;;;5052942;28;19913;-60
2022/11/02 14:22:12;;;;;;;;;;;;;;;;;;5050650;28;20290;-59
2022/11/02 14:24:38;;;;;;;;;;;;;;;;;;5052314;28;19917;-59
2022/11/02 14:27:04;;;;;;;;;;;;;;;;;;5049505;28;19917;-59
2022/11/02 14:29:30;;;;;;;;;;;;;;;;;;5050108;28;19963;-59
2022/11/02 14:31:56;;;;;;;;;;;;;;;;;;5050371;28;19999;-59
2022/11/02 14:34:22;;;;;;;;;;;;;;;;;;5046868;28;19958;-59
2022/11/02 14:36:48;;;;;;;;;;;;;;;;;;5050018;28;19944;-60
2022/11/02 14:39:14;;;;;;;;;;;;;;;;;;5047773;28;19962;-59
2022/11/02 14:41:39;;;;;;;;;;;;;;;;;;5051070;28;19917;-59
2022/11/02 14:44:05;;;;;;;;;;;;;;;;;;5052104;28;19916;-60
2022/11/02 14:46:31;;;;;;;;;;;;;;;;;;5051309;28;19966;-60
2022/11/02 14:48:57;;;;;;;;;;;;;;;;;;5051081;28;19913;-59
2022/11/02 14:51:23;;;;;;;;;;;;;;;;;;5049540;28;19966;-59
2022/11/02 14:53:49;;;;;;;;;;;;;;;;;;5048838;28;19962;-59
2022/11/02 14:56:15;;;;;;;;;;;;;;;;;;5049825;28;19966;-60
2022/11/02 14:58:41;;;;;;;;;;;;;;;;;;5047695;28;19966;-59
2022/11/02 15:01:07;;;;;;;;;;;;;;;;;;5049316;28;19948;-59
2022/11/02 15:03:33;;;;;;;;;;;;;;;;;;5051232;28;19919;-59
2022/11/02 15:05:58;;;;;;;;;;;;;;;;;;5051994;28;20310;-60
2022/11/02 15:08:24;;;;;;;;;;;;;;;;;;5048081;28;19991;-59
2022/11/02 15:10:50;;;;;;;;;;;;;;;;;;5049679;28;20402;-59
2022/11/02 15:13:16;;;;;;;;;;;;;;;;;;5050705;28;20039;-60
2022/11/02 15:15:42;;;;;;;;;;;;;;;;;;5051269;28;19913;-59
2022/11/02 15:18:08;;;;;;;;;;;;;;;;;;5043354;28;19995;-60
2022/11/02 15:20:34;;;;;;;;;;;;;;;;;;5047004;28;19929;-59
2022/11/02 15:23:00;;;;;;;;;;;;;;;;;;5049577;28;19966;-60
2022/11/02 15:25:26;;;;;;;;;;;;;;;;;;5049846;28;19956;-59
2022/11/02 15:27:52;;;;;;;;;;;;;;;;;;5048983;28;20007;-60
2022/11/02 15:30:18;;;;;;;;;;;;;;;;;;5050421;28;19964;-60
2022/11/02 15:32:44;;;;;;;;;;;;;;;;;;5051609;28;19944;-59
2022/11/02 15:35:09;;;;;;;;;;;;;;;;;;5050984;28;19955;-59
2022/11/02 15:37:35;;;;;;;;;;;;;;;;;;5040567;28;19990;-59
2022/11/02 15:40:03;;;;;;;;;;;;;;;;;;5049721;28;19912;-59
2022/11/02 15:42:29;;;;;;;;;;;;;;;;;;5053743;28;19948;-59
2022/11/02 15:44:55;;;;;;;;;;;;;;;;;;5050568;28;19944;-59
2022/11/02 15:47:20;;;;;;;;;;;;;;;;;;5050622;28;19955;-59
2022/11/02 15:49:46;;;;;;;;;;;;;;;;;;5050614;28;19952;-59
2022/11/02 15:52:12;;;;;;;;;;;;;;;;;;5052407;28;19959;-59
2022/11/02 15:54:38;;;;;;;;;;;;;;;;;;5050629;28;20015;-59
2022/11/02 15:57:04;;;;;;;;;;;;;;;;;;5051302;28;19940;-59
2022/11/02 15:59:30;;;;;;;;;;;;;;;;;;5050765;28;20007;-59
2022/11/02 16:01:56;;;;;;;;;;;;;;;;;;5048653;28;19944;-58
2022/11/02 16:04:22;;;;;;;;;;;;;;;;;;5045853;28;19960;-59
2022/11/02 16:06:48;;;;;;;;;;;;;;;;;;5045354;28;19956;-59
2022/11/02 16:09:14;;;;;;;;;;;;;;;;;;5049885;28;20477;-59
2022/11/02 16:11:40;;;;;;;;;;;;;;;;;;5050379;28;19948;-58
2022/11/02 16:14:06;;;;;;;;;;;;;;;;;;5049425;28;19916;-61
2022/11/02 16:16:32;;;;;;;;;;;;;;;;;;5050026;28;19912;-59
2022/11/02 16:18:57;;;;;;;;;;;;;;;;;;5050821;28;19955;-59
2022/11/02 16:21:23;;;;;;;;;;;;;;;;;;5050327;28;20334;-59
2022/11/02 16:23:49;;;;;;;;;;;;;;;;;;5047466;28;19919;-59
2022/11/02 16:26:18;;;;;;;;;;;;;;;;;;5049956;28;19924;-59
2022/11/02 16:28:44;;;;;;;;;;;;;;;;;;5049488;28;19918;-59
2022/11/02 16:31:10;;;;;;;;;;;;;;;;;;5050766;28;20013;-59
2022/11/02 16:33:36;;;;;;;;;;;;;;;;;;5054497;28;19913;-59
2022/11/02 16:36:02;;;;;;;;;;;;;;;;;;5054519;28;20124;-59
2022/11/02 16:38:28;;;;;;;;;;;;;;;;;;5053828;28;20315;-59
2022/11/02 16:40:54;;;;;;;;;;;;;;;;;;5054893;28;20398;-59
2022/11/02 16:43:19;;;;;;;;;;;;;;;;;;5054032;28;19953;-59
2022/11/02 16:45:45;;;;;;;;;;;;;;;;;;5054945;28;19954;-59
2022/11/02 16:48:11;;;;;;;;;;;;;;;;;;5052107;28;20329;-59
2022/11/02 16:50:37;;;;;;;;;;;;;;;;;;5052965;28;19920;-59
2022/11/02 16:53:03;;;;;;;;;;;;;;;;;;5049340;28;19959;-59